Time;durP1;ratioP1;P1;durP2;ratioP2;P2;SDS_P1;SDS_P2;PMS_P1;PMS_P2;Temp;Humidity;BMP_temperature;BMP_pressure;BME280_temperature;BME280_humidity;BME280_pressure;Samples;Min_cycle;Max_cycle;Signal;HPM_P1;HPM_P2
2021/12/21 00:11:09;;;;;;;5.65;4.10;;;;;;;;;;5048226;28;20988;-83
2021/12/21 00:13:53;;;;;;;7.70;4.68;;;;;;;;;;5042278;28;20025;-84
2021/12/21 00:21:38;;;;;;;6.82;3.10;;;;;;;;;;5048478;28;20107;-81
2021/12/21 00:24:19;;;;;;;6.07;4.35;;;;;;;;;;5048519;28;20033;-81
2021/12/21 00:26:45;;;;;;;11.90;3.67;;;;;;;;;;5048240;28;20128;-82
2021/12/21 00:29:11;;;;;;;5.22;3.55;;;;;;;;;;5048447;28;20117;-84
2021/12/21 00:31:38;;;;;;;6.25;4.78;;;;;;;;;;5048166;28;20075;-82
2021/12/21 00:34:06;;;;;;;6.75;4.18;;;;;;;;;;5048542;28;20032;-81
2021/12/21 00:36:32;;;;;;;5.60;3.28;;;;;;;;;;5044611;28;20027;-82
2021/12/21 00:39:03;;;;;;;7.85;4.38;;;;;;;;;;5047547;28;20029;-81
2021/12/21 00:41:29;;;;;;;4.63;3.28;;;;;;;;;;5044680;28;20035;-82
2021/12/21 00:43:55;;;;;;;5.85;3.40;;;;;;;;;;5047893;28;20024;-82
2021/12/21 00:46:20;;;;;;;4.95;3.33;;;;;;;;;;5045898;28;20388;-81
2021/12/21 00:48:55;;;;;;;6.75;3.97;;;;;;;;;;5047880;28;20048;-82
2021/12/21 00:51:23;;;;;;;4.43;2.88;;;;;;;;;;5045474;28;20041;-81
2021/12/21 00:53:49;;;;;;;6.70;3.75;;;;;;;;;;5047034;28;20037;-82
2021/12/21 00:56:15;;;;;;;10.70;5.63;;;;;;;;;;5047590;28;20051;-82
2021/12/21 00:58:41;;;;;;;4.45;3.30;;;;;;;;;;5047665;28;20029;-81
2021/12/21 01:01:07;;;;;;;5.68;3.63;;;;;;;;;;5046177;28;20048;-82
2021/12/21 01:03:37;;;;;;;5.05;4.22;;;;;;;;;;5047438;28;20381;-82
2021/12/21 01:08:43;;;;;;;6.63;3.58;;;;;;;;;;5047532;28;20044;-81
2021/12/21 01:11:15;;;;;;;7.10;3.42;;;;;;;;;;5036059;28;20049;-82
2021/12/21 01:16:25;;;;;;;8.18;4.32;;;;;;;;;;5034043;28;20033;-83
2021/12/21 01:19:10;;;;;;;6.95;3.78;;;;;;;;;;5032123;28;20017;-82
2021/12/21 01:21:47;;;;;;;7.90;4.55;;;;;;;;;;5033268;28;20034;-83
2021/12/21 01:29:37;;;;;;;9.77;5.68;;;;;;;;;;5032069;28;20024;-82
2021/12/21 01:37:20;;;;;;;4.13;2.88;;;;;;;;;;5033636;28;20037;-83
2021/12/21 01:50:45;;;;;;;6.13;4.30;;;;;;;;;;5025130;28;20413;-83
2021/12/21 01:53:11;;;;;;;6.40;4.70;;;;;;;;;;5033617;28;20026;-81
2021/12/21 01:55:36;;;;;;;5.95;3.75;;;;;;;;;;5033592;28;20076;-82
2021/12/21 01:58:02;;;;;;;4.95;3.50;;;;;;;;;;5033422;28;20554;-83
2021/12/21 02:00:29;;;;;;;4.93;3.33;;;;;;;;;;5033875;28;20033;-82
2021/12/21 02:02:55;;;;;;;5.80;3.85;;;;;;;;;;5033038;28;20029;-83
2021/12/21 02:05:20;;;;;;;6.80;4.38;;;;;;;;;;5034058;28;20025;-85
2021/12/21 02:07:46;;;;;;;7.35;3.55;;;;;;;;;;5033913;28;20025;-82
2021/12/21 02:10:11;;;;;;;5.65;3.85;;;;;;;;;;5033650;28;20049;-83
2021/12/21 02:12:37;;;;;;;6.20;2.90;;;;;;;;;;5031131;28;20022;-82
2021/12/21 02:15:03;;;;;;;5.47;2.53;;;;;;;;;;5033095;28;20029;-82
2021/12/21 02:22:46;;;;;;;3.67;2.33;;;;;;;;;;5030525;28;20492;-82
2021/12/21 02:30:21;;;;;;;5.50;2.85;;;;;;;;;;5032854;28;20101;-81
2021/12/21 02:32:47;;;;;;;4.28;2.20;;;;;;;;;;5032916;28;20400;-81
2021/12/21 02:35:15;;;;;;;4.20;2.85;;;;;;;;;;5031389;28;20033;-82
2021/12/21 02:37:40;;;;;;;5.60;3.70;;;;;;;;;;5032370;28;20025;-80
2021/12/21 02:40:07;;;;;;;5.15;2.83;;;;;;;;;;5032976;28;20483;-82
2021/12/21 02:42:32;;;;;;;3.47;2.80;;;;;;;;;;5032722;28;20588;-82
2021/12/21 02:44:58;;;;;;;6.10;2.90;;;;;;;;;;5033090;28;20037;-83
2021/12/21 02:47:24;;;;;;;3.38;1.70;;;;;;;;;;5032732;28;20029;-82
2021/12/21 02:49:50;;;;;;;3.55;2.15;;;;;;;;;;5032733;28;20091;-82
2021/12/21 02:52:15;;;;;;;2.90;1.75;;;;;;;;;;5031398;28;20052;-83
2021/12/21 02:54:41;;;;;;;3.90;1.80;;;;;;;;;;5033005;28;20029;-83
2021/12/21 02:57:07;;;;;;;2.97;1.80;;;;;;;;;;5032675;28;20091;-83
2021/12/21 02:59:33;;;;;;;4.47;1.90;;;;;;;;;;5032609;28;20071;-82
2021/12/21 03:01:59;;;;;;;3.38;2.40;;;;;;;;;;5032414;28;20231;-84
2021/12/21 03:04:24;;;;;;;3.90;1.75;;;;;;;;;;5031466;28;20025;-82
2021/12/21 03:07:18;;;;;;;2.63;1.60;;;;;;;;;;5032128;28;20025;-83
2021/12/21 03:09:41;;;;;;;1.75;1.48;;;;;;;;;;5030787;28;20393;-81
2021/12/21 03:12:29;;;;;;;3.42;1.52;;;;;;;;;;5027182;28;20090;-82
2021/12/21 03:14:55;;;;;;;2.60;1.92;;;;;;;;;;5032410;28;20091;-83
2021/12/21 03:17:21;;;;;;;3.70;2.92;;;;;;;;;;5031666;28;20416;-84
2021/12/21 03:19:47;;;;;;;2.95;1.83;;;;;;;;;;5030658;28;20025;-83
2021/12/21 03:22:14;;;;;;;4.97;2.42;;;;;;;;;;5030711;28;20025;-82
2021/12/21 03:24:42;;;;;;;2.60;1.80;;;;;;;;;;5030877;28;20525;-84
2021/12/21 03:27:08;;;;;;;2.28;1.67;;;;;;;;;;5031924;28;20021;-82
2021/12/21 03:29:34;;;;;;;2.75;2.08;;;;;;;;;;5031593;28;20036;-83
2021/12/21 03:32:01;;;;;;;3.03;1.83;;;;;;;;;;5030809;28;20033;-83
2021/12/21 03:34:27;;;;;;;3.17;2.08;;;;;;;;;;5030244;28;20029;-81
2021/12/21 03:36:53;;;;;;;3.65;2.13;;;;;;;;;;5031605;28;20029;-83
2021/12/21 03:39:20;;;;;;;2.85;1.55;;;;;;;;;;5031726;28;20392;-82
2021/12/21 03:41:51;;;;;;;2.15;1.58;;;;;;;;;;5031853;28;20036;-82
2021/12/21 03:44:18;;;;;;;1.98;1.42;;;;;;;;;;5031792;28;20025;-82
2021/12/21 03:46:51;;;;;;;2.42;1.83;;;;;;;;;;5032119;28;20455;-82
2021/12/21 03:52:19;;;;;;;2.95;1.50;;;;;;;;;;5025982;28;20106;-83
2021/12/21 03:54:48;;;;;;;3.08;1.55;;;;;;;;;;5031655;28;20087;-82
2021/12/21 03:57:14;;;;;;;1.83;1.45;;;;;;;;;;5030083;28;20461;-81
2021/12/21 03:59:43;;;;;;;2.17;1.38;;;;;;;;;;5031196;28;20100;-82
2021/12/21 04:02:11;;;;;;;2.55;1.55;;;;;;;;;;5031146;28;20056;-82
2021/12/21 04:04:41;;;;;;;3.22;2.05;;;;;;;;;;5031395;28;20029;-83
2021/12/21 04:07:06;;;;;;;6.50;2.70;;;;;;;;;;5028115;28;20032;-82
2021/12/21 04:09:32;;;;;;;2.55;1.60;;;;;;;;;;5031157;28;20053;-80
2021/12/21 04:11:57;;;;;;;7.03;1.77;;;;;;;;;;5031300;28;20084;-80
2021/12/21 04:14:23;;;;;;;3.03;1.80;;;;;;;;;;5031122;28;20489;-81
2021/12/21 04:16:49;;;;;;;2.88;2.00;;;;;;;;;;5029764;28;20030;-82
2021/12/21 04:19:17;;;;;;;3.53;2.25;;;;;;;;;;5031388;28;20017;-82
2021/12/21 04:21:42;;;;;;;3.15;2.28;;;;;;;;;;5030038;28;20086;-82
2021/12/21 04:24:08;;;;;;;1.67;1.33;;;;;;;;;;5031282;28;20029;-81
2021/12/21 04:26:33;;;;;;;3.08;1.70;;;;;;;;;;5030448;28;20100;-81
2021/12/21 04:28:59;;;;;;;3.38;1.90;;;;;;;;;;5029695;28;20080;-80
2021/12/21 04:31:24;;;;;;;2.45;1.63;;;;;;;;;;5031417;28;20026;-82
2021/12/21 04:33:50;;;;;;;3.15;1.35;;;;;;;;;;5031520;28;20389;-82
2021/12/21 04:36:16;;;;;;;2.55;1.60;;;;;;;;;;5029759;28;20025;-82
2021/12/21 04:38:47;;;;;;;3.38;1.98;;;;;;;;;;5030073;28;20535;-82
2021/12/21 04:41:17;;;;;;;2.95;1.27;;;;;;;;;;5030946;28;20048;-82
2021/12/21 04:43:43;;;;;;;2.80;1.77;;;;;;;;;;5029668;28;20021;-82
2021/12/21 04:46:10;;;;;;;1.33;0.98;;;;;;;;;;5032675;28;20041;-82
2021/12/21 04:48:36;;;;;;;2.53;1.40;;;;;;;;;;5034787;28;20458;-82
2021/12/21 04:51:03;;;;;;;1.77;1.40;;;;;;;;;;5033704;28;20037;-83
2021/12/21 04:53:29;;;;;;;2.55;1.45;;;;;;;;;;5034677;28;20026;-83
2021/12/21 04:55:54;;;;;;;3.13;1.13;;;;;;;;;;5034715;28;20482;-82
2021/12/21 04:58:21;;;;;;;1.65;1.00;;;;;;;;;;5034870;28;20331;-82
2021/12/21 05:00:49;;;;;;;3.58;1.80;;;;;;;;;;5033550;28;20414;-82
2021/12/21 05:03:15;;;;;;;1.95;1.30;;;;;;;;;;5034984;28;20104;-84
2021/12/21 05:05:41;;;;;;;1.67;1.15;;;;;;;;;;5034327;28;20536;-82
2021/12/21 05:08:12;;;;;;;1.95;1.45;;;;;;;;;;5033241;28;20029;-82
2021/12/21 05:11:04;;;;;;;1.67;1.30;;;;;;;;;;5034380;28;20056;-82
2021/12/21 05:13:32;;;;;;;1.95;1.30;;;;;;;;;;5034206;28;20396;-83
2021/12/21 05:15:58;;;;;;;3.33;2.05;;;;;;;;;;5034523;28;20021;-82
2021/12/21 05:18:24;;;;;;;2.45;1.48;;;;;;;;;;5034675;28;20413;-82
2021/12/21 05:20:51;;;;;;;2.55;1.70;;;;;;;;;;5032138;28;20041;-82
2021/12/21 05:23:16;;;;;;;3.40;2.20;;;;;;;;;;5034334;28;20029;-82
2021/12/21 05:25:42;;;;;;;2.08;1.77;;;;;;;;;;5033785;28;20017;-82
2021/12/21 05:28:10;;;;;;;1.63;1.02;;;;;;;;;;5034001;28;20370;-82
2021/12/21 05:30:36;;;;;;;1.85;1.40;;;;;;;;;;5032680;28;20556;-82
2021/12/21 05:33:03;;;;;;;2.63;1.42;;;;;;;;;;5033628;28;20187;-82
2021/12/21 05:35:30;;;;;;;2.05;1.65;;;;;;;;;;5032866;28;20037;-83
2021/12/21 05:38:00;;;;;;;3.42;1.80;;;;;;;;;;5031507;28;20373;-83
2021/12/21 05:40:42;;;;;;;2.03;1.75;;;;;;;;;;5031911;28;20033;-83
2021/12/21 05:43:09;;;;;;;3.65;2.78;;;;;;;;;;5030691;28;20029;-83
2021/12/21 05:45:35;;;;;;;2.30;1.60;;;;;;;;;;5032827;28;20400;-82
2021/12/21 05:48:01;;;;;;;3.33;1.88;;;;;;;;;;5033728;28;20029;-83
2021/12/21 05:50:27;;;;;;;3.97;2.22;;;;;;;;;;5033431;28;20037;-82
2021/12/21 05:52:52;;;;;;;2.25;1.23;;;;;;;;;;5032598;28;20421;-82
2021/12/21 05:55:19;;;;;;;4.68;1.70;;;;;;;;;;5033853;28;20117;-83
2021/12/21 05:57:45;;;;;;;3.88;2.50;;;;;;;;;;5032948;28;20100;-83
2021/12/21 06:00:15;;;;;;;2.10;1.90;;;;;;;;;;5031550;28;20018;-84
2021/12/21 06:02:41;;;;;;;1.98;1.20;;;;;;;;;;5032664;28;20131;-83
2021/12/21 06:05:07;;;;;;;3.88;2.17;;;;;;;;;;5033269;28;20112;-83
2021/12/21 06:07:33;;;;;;;5.30;2.60;;;;;;;;;;5031957;28;20029;-81
2021/12/21 06:10:08;;;;;;;2.97;1.70;;;;;;;;;;5028181;28;20033;-81
2021/12/21 06:25:52;;;;;;;8.32;3.45;;;;;;;;;;5032682;28;20111;-78
2021/12/21 06:28:18;;;;;;;5.00;2.70;;;;;;;;;;5033075;28;20036;-79
2021/12/21 06:30:44;;;;;;;2.72;2.05;;;;;;;;;;5032101;28;20393;-80
2021/12/21 06:33:10;;;;;;;1.70;1.25;;;;;;;;;;5031373;28;20121;-80
2021/12/21 06:35:37;;;;;;;3.83;2.50;;;;;;;;;;5031572;28;20025;-80
2021/12/21 06:38:03;;;;;;;2.78;1.50;;;;;;;;;;5031857;28;20103;-82
2021/12/21 06:40:29;;;;;;;2.05;1.58;;;;;;;;;;5031742;28;20032;-81
2021/12/21 06:42:55;;;;;;;2.33;1.65;;;;;;;;;;5032412;28;20430;-81
2021/12/21 06:53:44;;;;;;;10.00;4.07;;;;;;;;;;5027844;28;20032;-81
2021/12/21 06:56:10;;;;;;;4.10;2.33;;;;;;;;;;5031274;28;20060;-81
2021/12/21 06:58:36;;;;;;;4.43;2.35;;;;;;;;;;5031541;28;20025;-81
2021/12/21 07:01:03;;;;;;;3.33;2.05;;;;;;;;;;5031500;28;20033;-80
2021/12/21 07:03:29;;;;;;;4.43;2.88;;;;;;;;;;5031451;28;20032;-80
2021/12/21 07:05:54;;;;;;;6.25;3.15;;;;;;;;;;5029729;28;20033;-79
2021/12/21 07:08:27;;;;;;;4.35;2.33;;;;;;;;;;5029311;28;20099;-80
2021/12/21 07:11:42;;;;;;;6.57;4.32;;;;;;;;;;5028163;28;20363;-82
2021/12/21 07:19:12;;;;;;;6.03;2.08;;;;;;;;;;5030772;28;20651;-82
2021/12/21 07:21:38;;;;;;;2.00;1.38;;;;;;;;;;5030801;28;20034;-80
2021/12/21 07:24:04;;;;;;;7.60;2.63;;;;;;;;;;5030537;28;20111;-80
2021/12/21 07:26:30;;;;;;;4.65;2.63;;;;;;;;;;5030337;28;20034;-80
2021/12/21 07:28:55;;;;;;;1.80;1.60;;;;;;;;;;5030682;28;20082;-79
2021/12/21 07:31:22;;;;;;;4.20;2.05;;;;;;;;;;5030747;28;20164;-80
2021/12/21 07:33:47;;;;;;;2.10;1.63;;;;;;;;;;5030726;28;20037;-81
2021/12/21 07:36:13;;;;;;;3.97;2.00;;;;;;;;;;5030505;28;20052;-80
2021/12/21 07:38:39;;;;;;;2.38;1.92;;;;;;;;;;5030627;28;20017;-80
2021/12/21 07:41:04;;;;;;;2.47;1.92;;;;;;;;;;5028317;28;20176;-80
2021/12/21 07:43:30;;;;;;;4.95;2.33;;;;;;;;;;5029217;28;20469;-80
2021/12/21 07:45:56;;;;;;;6.40;2.47;;;;;;;;;;5029307;28;20040;-81
2021/12/21 07:48:22;;;;;;;2.70;2.00;;;;;;;;;;5029847;28;20385;-80
2021/12/21 07:50:49;;;;;;;4.80;2.65;;;;;;;;;;5028396;28;20053;-82
2021/12/21 07:53:16;;;;;;;2.17;1.60;;;;;;;;;;5030045;28;20025;-81
2021/12/21 07:55:43;;;;;;;9.18;2.28;;;;;;;;;;5030240;28;20052;-80
2021/12/21 07:58:09;;;;;;;3.80;2.13;;;;;;;;;;5025235;28;20032;-80
2021/12/21 08:00:34;;;;;;;4.78;2.17;;;;;;;;;;5028143;28;20038;-81
2021/12/21 08:03:00;;;;;;;4.70;1.90;;;;;;;;;;5028244;28;20033;-79
2021/12/21 08:05:31;;;;;;;3.83;1.92;;;;;;;;;;5029521;28;20567;-81
2021/12/21 08:08:07;;;;;;;4.03;2.03;;;;;;;;;;5029400;28;20465;-81
2021/12/21 08:10:43;;;;;;;2.47;2.05;;;;;;;;;;5025204;28;20049;-81
2021/12/21 08:13:09;;;;;;;2.95;1.88;;;;;;;;;;5028650;28;20043;-80
2021/12/21 08:15:35;;;;;;;4.03;2.75;;;;;;;;;;5028038;28;20029;-80
2021/12/21 08:18:00;;;;;;;3.42;2.15;;;;;;;;;;5030242;28;20091;-80
2021/12/21 08:20:29;;;;;;;4.95;3.30;;;;;;;;;;5029805;28;20037;-80
2021/12/21 08:22:55;;;;;;;1.88;1.15;;;;;;;;;;5029493;28;20034;-79
2021/12/21 08:25:25;;;;;;;4.93;2.80;;;;;;;;;;5030416;28;20401;-82
2021/12/21 08:27:58;;;;;;;2.28;1.48;;;;;;;;;;5030393;28;20029;-81
2021/12/21 08:30:24;;;;;;;2.65;1.90;;;;;;;;;;5032406;28;20025;-80
2021/12/21 08:32:50;;;;;;;2.35;1.70;;;;;;;;;;5032042;28;20029;-79
2021/12/21 08:35:15;;;;;;;2.65;1.95;;;;;;;;;;5033178;28;20033;-80
2021/12/21 08:37:48;;;;;;;4.97;2.60;;;;;;;;;;5032570;28;20030;-80
2021/12/21 08:40:14;;;;;;;3.10;1.67;;;;;;;;;;5032030;28;20029;-80
2021/12/21 08:42:41;;;;;;;4.38;2.28;;;;;;;;;;5032288;28;20036;-80
2021/12/21 08:45:07;;;;;;;3.10;1.80;;;;;;;;;;5033616;28;20053;-80
2021/12/21 08:47:34;;;;;;;2.67;1.98;;;;;;;;;;5033344;28;20061;-80
2021/12/21 08:49:59;;;;;;;5.53;2.22;;;;;;;;;;5033536;28;20033;-80
2021/12/21 08:52:25;;;;;;;3.55;2.00;;;;;;;;;;5033390;28;20047;-80
2021/12/21 08:54:50;;;;;;;2.42;1.35;;;;;;;;;;5032631;28;20032;-79
2021/12/21 08:57:16;;;;;;;3.45;2.35;;;;;;;;;;5031700;28;20025;-79
2021/12/21 08:59:42;;;;;;;2.45;1.90;;;;;;;;;;5032151;28;20377;-80
2021/12/21 09:02:09;;;;;;;3.03;1.75;;;;;;;;;;5031695;28;20041;-79
2021/12/21 09:04:34;;;;;;;2.38;1.80;;;;;;;;;;5027769;28;20029;-80
2021/12/21 09:07:03;;;;;;;2.72;1.77;;;;;;;;;;5032149;28;20025;-80
2021/12/21 09:09:29;;;;;;;3.65;2.00;;;;;;;;;;5032034;28;20509;-81
2021/12/21 09:11:55;;;;;;;2.38;1.67;;;;;;;;;;5032886;28;20477;-81
2021/12/21 09:14:21;;;;;;;2.47;1.98;;;;;;;;;;5030907;28;20079;-80
2021/12/21 09:16:49;;;;;;;4.68;2.30;;;;;;;;;;5033110;28;20536;-78
2021/12/21 09:19:15;;;;;;;3.03;2.33;;;;;;;;;;5031281;28;20477;-80
2021/12/21 09:21:41;;;;;;;4.63;2.22;;;;;;;;;;5033352;28;20056;-81
2021/12/21 09:24:07;;;;;;;3.95;2.70;;;;;;;;;;5032841;28;20025;-81
2021/12/21 09:26:32;;;;;;;6.45;2.10;;;;;;;;;;5033072;28;20112;-80
2021/12/21 09:28:58;;;;;;;2.28;1.85;;;;;;;;;;5032855;28;20034;-81
2021/12/21 09:31:24;;;;;;;2.60;2.08;;;;;;;;;;5031047;28;20025;-81
2021/12/21 09:33:49;;;;;;;4.38;3.15;;;;;;;;;;5030929;28;20515;-80
2021/12/21 09:36:15;;;;;;;5.00;2.22;;;;;;;;;;5033095;28;20095;-80
2021/12/21 09:38:41;;;;;;;2.60;1.92;;;;;;;;;;5031419;28;20057;-79
2021/12/21 09:41:06;;;;;;;4.70;2.20;;;;;;;;;;5032777;28;20083;-81
2021/12/21 09:43:32;;;;;;;3.55;2.22;;;;;;;;;;5033153;28;20463;-81
2021/12/21 09:45:58;;;;;;;3.53;1.80;;;;;;;;;;5030361;28;20029;-80
2021/12/21 09:48:28;;;;;;;3.10;2.13;;;;;;;;;;5032809;28;20029;-80
2021/12/21 09:50:54;;;;;;;6.18;2.83;;;;;;;;;;5030752;28;20085;-80
2021/12/21 09:53:22;;;;;;;3.70;1.88;;;;;;;;;;5028711;28;20041;-80
2021/12/21 09:55:48;;;;;;;5.93;2.20;;;;;;;;;;5031582;28;20385;-81
2021/12/21 09:58:14;;;;;;;5.00;2.50;;;;;;;;;;5032583;28;20075;-82
2021/12/21 10:00:40;;;;;;;6.15;2.97;;;;;;;;;;5031990;28;20026;-81
2021/12/21 10:03:07;;;;;;;2.75;2.13;;;;;;;;;;5031409;28;20099;-80
2021/12/21 10:05:36;;;;;;;3.42;2.10;;;;;;;;;;5031974;28;20025;-80
2021/12/21 10:08:24;;;;;;;4.80;2.70;;;;;;;;;;5032171;28;20116;-79
2021/12/21 10:10:52;;;;;;;1.77;1.45;;;;;;;;;;5030051;28;20049;-79
2021/12/21 10:13:21;;;;;;;4.57;2.38;;;;;;;;;;5032370;28;20037;-81
2021/12/21 10:16:17;;;;;;;2.43;2.10;;;;;;;;;;5032098;28;20029;-80
2021/12/21 10:18:43;;;;;;;3.15;2.13;;;;;;;;;;5031080;28;20489;-80
2021/12/21 10:21:12;;;;;;;4.30;2.22;;;;;;;;;;5031716;28;20025;-79
2021/12/21 10:23:41;;;;;;;2.78;2.15;;;;;;;;;;5032068;28;20041;-79
2021/12/21 10:26:10;;;;;;;5.38;3.13;;;;;;;;;;5031596;28;20477;-79
2021/12/21 10:28:44;;;;;;;6.47;3.13;;;;;;;;;;5031722;28;20112;-80
2021/12/21 10:31:22;;;;;;;4.68;1.98;;;;;;;;;;5023311;28;20037;-80
2021/12/21 10:33:48;;;;;;;3.42;2.17;;;;;;;;;;5030155;28;20152;-80
2021/12/21 10:36:15;;;;;;;6.45;3.00;;;;;;;;;;5026719;28;20120;-80
2021/12/21 10:38:51;;;;;;;4.30;3.45;;;;;;;;;;5031369;28;20036;-80
2021/12/21 10:41:26;;;;;;;3.78;2.50;;;;;;;;;;5027324;28;20048;-80
2021/12/21 10:44:11;;;;;;;3.42;2.42;;;;;;;;;;5029319;28;20366;-80
2021/12/21 10:46:40;;;;;;;2.78;2.03;;;;;;;;;;5031170;28;20022;-79
2021/12/21 10:49:10;;;;;;;4.20;3.03;;;;;;;;;;5031261;28;20025;-80
2021/12/21 10:52:00;;;;;;;3.05;1.95;;;;;;;;;;5030006;28;20033;-81
2021/12/21 10:54:46;;;;;;;4.13;2.50;;;;;;;;;;5027515;28;20055;-80
2021/12/21 10:57:15;;;;;;;4.20;2.45;;;;;;;;;;5030755;28;20377;-80
2021/12/21 10:59:43;;;;;;;6.38;2.58;;;;;;;;;;5031496;28;20440;-80
2021/12/21 11:02:13;;;;;;;3.10;2.08;;;;;;;;;;5030747;28;20033;-80
2021/12/21 11:04:42;;;;;;;3.53;1.98;;;;;;;;;;5029912;28;20037;-79
2021/12/21 11:07:40;;;;;;;4.57;2.47;;;;;;;;;;5030890;28;20091;-80
2021/12/21 11:10:30;;;;;;;3.83;2.35;;;;;;;;;;5028459;28;20056;-80
2021/12/21 11:12:56;;;;;;;;;;;;;;;;;;5030478;28;20124;-79
2021/12/21 11:15:31;;;;;;;3.35;2.17;;;;;;;;;;5028410;28;20424;-79
2021/12/21 11:18:04;;;;;;;3.40;2.13;;;;;;;;;;5029211;28;20037;-80
2021/12/21 11:20:30;;;;;;;5.40;2.70;;;;;;;;;;5026458;28;20033;-80
2021/12/21 11:22:56;;;;;;;5.05;2.95;;;;;;;;;;5030708;28;20535;-81
2021/12/21 11:25:22;;;;;;;9.00;4.35;;;;;;;;;;5029430;28;20341;-79
2021/12/21 11:27:49;;;;;;;4.00;2.85;;;;;;;;;;5030655;28;20039;-80
2021/12/21 11:30:18;;;;;;;5.60;2.65;;;;;;;;;;5030206;28;20044;-80
2021/12/21 11:32:48;;;;;;;9.10;4.00;;;;;;;;;;5028328;28;20362;-79
2021/12/21 11:37:48;;;;;;;5.85;3.17;;;;;;;;;;5030917;28;20088;-80
2021/12/21 11:40:17;;;;;;;10.35;2.97;;;;;;;;;;5029372;28;20460;-80
2021/12/21 11:42:51;;;;;;;9.07;4.10;;;;;;;;;;5027078;28;20036;-80
2021/12/21 11:45:27;;;;;;;4.88;3.10;;;;;;;;;;5029860;28;20098;-80
2021/12/21 11:48:10;;;;;;;8.50;4.55;;;;;;;;;;5027502;28;20134;-81
2021/12/21 11:50:42;;;;;;;10.25;5.07;;;;;;;;;;5030931;28;20025;-80
2021/12/21 11:53:11;;;;;;;7.60;3.78;;;;;;;;;;5029305;28;20029;-81
2021/12/21 11:55:40;;;;;;;6.50;3.35;;;;;;;;;;5029785;28;20025;-80
2021/12/21 11:58:17;;;;;;;5.57;3.20;;;;;;;;;;5030523;28;20037;-80
2021/12/21 12:00:47;;;;;;;7.35;3.58;;;;;;;;;;5030162;28;20030;-84
2021/12/21 12:03:19;;;;;;;5.80;3.35;;;;;;;;;;5029085;28;20029;-80
2021/12/21 12:05:59;;;;;;;5.95;3.08;;;;;;;;;;5029272;28;20061;-81
2021/12/21 12:08:46;;;;;;;6.85;3.40;;;;;;;;;;5029012;28;20029;-81
2021/12/21 12:11:27;;;;;;;9.02;3.58;;;;;;;;;;5026935;28;20107;-80
2021/12/21 12:14:22;;;;;;;12.85;6.07;;;;;;;;;;5030296;28;20469;-80
2021/12/21 12:16:52;;;;;;;4.55;3.30;;;;;;;;;;5022070;28;20063;-81
2021/12/21 12:19:21;;;;;;;4.88;2.60;;;;;;;;;;5028995;28;20091;-80
2021/12/21 12:22:02;;;;;;;7.15;3.72;;;;;;;;;;5029258;28;20029;-80
2021/12/21 12:24:58;;;;;;;8.48;3.80;;;;;;;;;;5024328;28;20068;-80
2021/12/21 12:27:29;;;;;;;7.72;3.50;;;;;;;;;;5020875;28;20489;-82
2021/12/21 12:30:00;;;;;;;3.88;2.65;;;;;;;;;;5030506;28;20116;-81
2021/12/21 12:32:43;;;;;;;7.10;4.25;;;;;;;;;;5028059;28;20029;-80
2021/12/21 12:35:11;;;;;;;4.80;2.70;;;;;;;;;;5024277;28;20021;-80
2021/12/21 12:37:54;;;;;;;7.45;3.40;;;;;;;;;;5026818;28;20084;-79
2021/12/21 12:40:23;;;;;;;5.00;3.00;;;;;;;;;;5026774;28;20025;-81
2021/12/21 12:43:02;;;;;;;5.32;3.35;;;;;;;;;;5030602;28;20174;-80
2021/12/21 12:46:04;;;;;;;4.43;2.27;;;;;;;;;;5028960;28;20037;-81
2021/12/21 12:48:43;;;;;;;3.33;2.40;;;;;;;;;;5027526;28;20382;-82
2021/12/21 12:51:23;;;;;;;3.43;2.50;;;;;;;;;;5030223;28;20056;-80
2021/12/21 12:53:49;;;;;;;4.47;3.13;;;;;;;;;;5030526;28;20481;-80
2021/12/21 12:56:18;;;;;;;3.72;2.03;;;;;;;;;;5029921;28;20025;-81
2021/12/21 12:59:02;;;;;;;4.88;2.88;;;;;;;;;;5028995;28;20113;-81
2021/12/21 13:01:38;;;;;;;7.15;2.88;;;;;;;;;;5028091;28;20499;-80
2021/12/21 13:04:10;;;;;;;4.22;2.17;;;;;;;;;;5030359;28;20021;-81
2021/12/21 13:06:37;;;;;;;4.60;3.15;;;;;;;;;;5031648;28;20065;-80
2021/12/21 13:09:09;;;;;;;5.88;3.38;;;;;;;;;;5033439;28;20465;-79
2021/12/21 13:11:37;;;;;;;5.97;3.08;;;;;;;;;;5029866;28;20422;-80
2021/12/21 13:14:03;;;;;;;9.20;5.00;;;;;;;;;;5033667;28;20025;-80
2021/12/21 13:16:34;;;;;;;8.23;3.80;;;;;;;;;;5033551;28;20033;-81
2021/12/21 13:19:01;;;;;;;4.07;2.47;;;;;;;;;;5033681;28;20473;-79
2021/12/21 13:21:47;;;;;;;2.72;2.15;;;;;;;;;;5032225;28;20033;-80
2021/12/21 13:24:19;;;;;;;4.07;2.72;;;;;;;;;;5030815;28;20048;-80
2021/12/21 13:27:12;;;;;;;5.93;2.63;;;;;;;;;;5033256;28;20079;-80
2021/12/21 13:29:37;;;;;;;7.45;3.88;;;;;;;;;;5029069;28;20393;-80
2021/12/21 13:32:08;;;;;;;6.20;3.92;;;;;;;;;;5033414;28;20025;-81
2021/12/21 13:34:34;;;;;;;5.25;1.88;;;;;;;;;;5028226;28;20029;-81
2021/12/21 13:37:05;;;;;;;7.05;4.53;;;;;;;;;;5031735;28;20083;-80
2021/12/21 13:39:37;;;;;;;6.70;4.05;;;;;;;;;;5033008;28;20142;-80
2021/12/21 13:42:08;;;;;;;5.43;3.20;;;;;;;;;;5031653;28;20034;-80
2021/12/21 13:44:37;;;;;;;6.60;4.13;;;;;;;;;;5031436;28;20116;-81
2021/12/21 13:47:21;;;;;;;7.63;4.72;;;;;;;;;;5031606;28;20496;-80
2021/12/21 13:50:14;;;;;;;9.35;4.10;;;;;;;;;;5033181;28;20025;-80
2021/12/21 13:52:45;;;;;;;7.13;4.80;;;;;;;;;;5027518;28;20056;-81
2021/12/21 13:55:36;;;;;;;10.82;5.25;;;;;;;;;;5032647;28;20037;-81
2021/12/21 13:58:06;;;;;;;12.10;5.13;;;;;;;;;;5033113;28;20091;-80
2021/12/21 14:00:34;;;;;;;7.03;4.88;;;;;;;;;;5032812;28;20048;-80
2021/12/21 14:03:13;;;;;;;6.72;3.95;;;;;;;;;;5028158;28;20099;-80
2021/12/21 14:05:43;;;;;;;8.83;5.23;;;;;;;;;;5030148;28;20375;-80
2021/12/21 14:08:10;;;;;;;5.93;3.58;;;;;;;;;;5032684;28;20479;-80
2021/12/21 14:10:42;;;;;;;6.93;3.63;;;;;;;;;;5029995;28;20049;-81
2021/12/21 14:13:08;;;;;;;5.70;3.50;;;;;;;;;;5030338;28;20026;-80
2021/12/21 14:15:45;;;;;;;5.97;3.92;;;;;;;;;;5032989;28;20075;-79
2021/12/21 14:18:38;;;;;;;7.43;3.28;;;;;;;;;;5032532;28;20136;-81
2021/12/21 14:21:07;;;;;;;5.60;3.70;;;;;;;;;;5030014;28;20060;-80
2021/12/21 14:23:36;;;;;;;12.98;6.60;;;;;;;;;;5032393;28;20388;-81
2021/12/21 14:26:11;;;;;;;11.35;5.13;;;;;;;;;;5030781;28;20033;-80
2021/12/21 14:28:45;;;;;;;8.88;4.40;;;;;;;;;;5031175;28;20037;-82
2021/12/21 14:31:11;;;;;;;5.50;3.05;;;;;;;;;;5032397;28;20031;-80
2021/12/21 14:33:48;;;;;;;8.57;5.30;;;;;;;;;;5031357;28;20025;-79
2021/12/21 14:36:15;;;;;;;3.03;2.20;;;;;;;;;;5032462;28;20112;-81
2021/12/21 14:39:00;;;;;;;8.55;5.00;;;;;;;;;;5031630;28;20039;-82
2021/12/21 14:41:29;;;;;;;9.55;4.15;;;;;;;;;;5032560;28;20031;-82
2021/12/21 14:44:07;;;;;;;5.07;3.40;;;;;;;;;;5033030;28;20420;-81
2021/12/21 14:46:36;;;;;;;8.25;4.40;;;;;;;;;;5030688;28;20116;-80
2021/12/21 14:49:08;;;;;;;8.25;3.88;;;;;;;;;;5031324;28;20112;-82
2021/12/21 14:51:46;;;;;;;9.85;4.53;;;;;;;;;;5032630;28;20026;-81
2021/12/21 14:54:22;;;;;;;13.23;7.20;;;;;;;;;;5030812;28;20380;-80
2021/12/21 14:56:48;;;;;;;13.43;6.40;;;;;;;;;;5029465;28;20041;-79
2021/12/21 14:59:13;;;;;;;12.52;5.68;;;;;;;;;;5032633;28;20377;-80
2021/12/21 15:01:52;;;;;;;7.28;3.88;;;;;;;;;;5029848;28;20025;-81
2021/12/21 15:04:22;;;;;;;5.60;3.53;;;;;;;;;;5031208;28;20025;-81
2021/12/21 15:06:49;;;;;;;3.17;2.47;;;;;;;;;;5031256;28;20057;-80
2021/12/21 15:09:15;;;;;;;2.95;1.80;;;;;;;;;;5027530;28;20045;-80
2021/12/21 15:11:53;;;;;;;8.35;5.32;;;;;;;;;;5031486;28;20052;-83
2021/12/21 15:14:19;;;;;;;8.38;5.60;;;;;;;;;;5031472;28;20017;-80
2021/12/21 15:16:45;;;;;;;8.50;4.85;;;;;;;;;;5032337;28;20024;-86
2021/12/21 15:19:11;;;;;;;4.53;3.20;;;;;;;;;;5029922;28;20032;-82
2021/12/21 15:21:36;;;;;;;5.05;2.85;;;;;;;;;;5031982;28;20021;-81
2021/12/21 15:24:03;;;;;;;5.60;3.38;;;;;;;;;;5032359;28;20114;-79
2021/12/21 15:26:30;;;;;;;7.22;4.82;;;;;;;;;;5031597;28;20025;-80
2021/12/21 15:28:57;;;;;;;8.55;5.80;;;;;;;;;;5030387;28;20390;-79
2021/12/21 15:31:23;;;;;;;13.45;6.75;;;;;;;;;;5030946;28;20025;-81
2021/12/21 15:33:48;;;;;;;11.48;6.53;;;;;;;;;;5031245;28;20441;-83
2021/12/21 15:36:14;;;;;;;12.07;5.97;;;;;;;;;;5028187;28;20033;-82
2021/12/21 15:38:40;;;;;;;6.30;2.85;;;;;;;;;;5028836;28;20091;-82
2021/12/21 15:41:05;;;;;;;6.05;3.50;;;;;;;;;;5030345;28;20036;-82
2021/12/21 15:43:36;;;;;;;3.60;2.53;;;;;;;;;;5031072;28;20104;-80
2021/12/21 15:46:02;;;;;;;7.53;5.25;;;;;;;;;;5028294;28;20035;-82
2021/12/21 15:48:28;;;;;;;9.20;3.35;;;;;;;;;;5031197;28;20611;-83
2021/12/21 15:50:53;;;;;;;7.28;3.58;;;;;;;;;;5029841;28;20025;-81
2021/12/21 15:53:19;;;;;;;7.75;3.67;;;;;;;;;;5029031;28;20040;-81
2021/12/21 15:55:44;;;;;;;6.65;4.40;;;;;;;;;;5029165;28;20021;-80
2021/12/21 15:58:10;;;;;;;7.88;5.28;;;;;;;;;;5029246;28;20030;-81
2021/12/21 16:00:36;;;;;;;16.75;7.85;;;;;;;;;;5027248;28;20156;-80
2021/12/21 16:03:01;;;;;;;13.23;6.95;;;;;;;;;;5028099;28;20444;-80
2021/12/21 16:05:27;;;;;;;18.38;8.25;;;;;;;;;;5028483;28;20079;-81
2021/12/21 16:07:52;;;;;;;9.98;5.40;;;;;;;;;;5030245;28;20036;-81
2021/12/21 16:10:19;;;;;;;9.68;6.32;;;;;;;;;;5028553;28;20073;-80
2021/12/21 16:12:46;;;;;;;9.05;5.75;;;;;;;;;;5030492;28;20483;-82
2021/12/21 16:15:12;;;;;;;8.57;4.97;;;;;;;;;;5029988;28;20033;-80
2021/12/21 16:17:39;;;;;;;13.63;7.97;;;;;;;;;;5028881;28;20167;-80
2021/12/21 16:20:11;;;;;;;9.50;6.22;;;;;;;;;;5030380;28;20473;-80
2021/12/21 16:22:36;;;;;;;9.13;6.38;;;;;;;;;;5026201;28;20451;-80